sensor_id;sensor_type;location;lat;lon;timestamp;temperature;humidity
41294;DHT22;27037;52.010;4.446;2024-03-23T00:54:08;8.40;99.90
41294;DHT22;27037;52.010;4.446;2024-03-23T00:56:34;8.40;99.90
41294;DHT22;27037;52.010;4.446;2024-03-23T00:58:59;8.40;99.90
41294;DHT22;27037;52.010;4.446;2024-03-23T01:01:25;8.30;99.90
41294;DHT22;27037;52.010;4.446;2024-03-23T01:03:50;8.30;99.90
41294;DHT22;27037;52.010;4.446;2024-03-23T01:06:16;8.20;99.90
41294;DHT22;27037;52.010;4.446;2024-03-23T01:08:41;8.20;99.90
41294;DHT22;27037;52.010;4.446;2024-03-23T01:11:07;8.20;99.90
41294;DHT22;27037;52.010;4.446;2024-03-23T01:13:33;8.10;99.90
41294;DHT22;27037;52.010;4.446;2024-03-23T01:15:59;8.10;99.90
41294;DHT22;27037;52.010;4.446;2024-03-23T01:18:24;8.10;99.90
41294;DHT22;27037;52.010;4.446;2024-03-23T01:20:51;8.00;99.90
41294;DHT22;27037;52.010;4.446;2024-03-23T01:23:17;8.00;99.90
41294;DHT22;27037;52.010;4.446;2024-03-23T01:25:43;8.00;99.90
41294;DHT22;27037;52.010;4.446;2024-03-23T01:28:08;7.90;99.90
41294;DHT22;27037;52.010;4.446;2024-03-23T01:30:35;7.90;99.90
41294;DHT22;27037;52.010;4.446;2024-03-23T01:33:01;7.90;99.90
41294;DHT22;27037;52.010;4.446;2024-03-23T01:35:28;7.90;99.90
41294;DHT22;27037;52.010;4.446;2024-03-23T01:37:53;7.80;99.90
41294;DHT22;27037;52.010;4.446;2024-03-23T01:40:19;7.80;99.90
41294;DHT22;27037;52.010;4.446;2024-03-23T01:43:04;7.80;99.90
41294;DHT22;27037;52.010;4.446;2024-03-23T01:45:31;7.80;99.90
41294;DHT22;27037;52.010;4.446;2024-03-23T01:47:56;7.70;99.90
41294;DHT22;27037;52.010;4.446;2024-03-23T01:50:23;7.70;99.90
41294;DHT22;27037;52.010;4.446;2024-03-23T01:52:49;7.70;99.90
41294;DHT22;27037;52.010;4.446;2024-03-23T01:55:15;7.70;99.90
41294;DHT22;27037;52.010;4.446;2024-03-23T01:57:41;7.70;99.90
41294;DHT22;27037;52.010;4.446;2024-03-23T02:00:07;7.60;99.90
41294;DHT22;27037;52.010;4.446;2024-03-23T02:02:34;7.60;99.90
41294;DHT22;27037;52.010;4.446;2024-03-23T02:04:59;7.60;99.90
41294;DHT22;27037;52.010;4.446;2024-03-23T02:07:25;7.60;99.90
41294;DHT22;27037;52.010;4.446;2024-03-23T02:09:53;7.60;99.90
41294;DHT22;27037;52.010;4.446;2024-03-23T02:12:20;7.60;99.90
41294;DHT22;27037;52.010;4.446;2024-03-23T02:14:46;7.50;99.90
41294;DHT22;27037;52.010;4.446;2024-03-23T02:17:12;7.50;99.90
41294;DHT22;27037;52.010;4.446;2024-03-23T02:19:38;7.50;99.90
41294;DHT22;27037;52.010;4.446;2024-03-23T02:22:04;7.40;99.90
41294;DHT22;27037;52.010;4.446;2024-03-23T02:24:30;7.40;99.90
41294;DHT22;27037;52.010;4.446;2024-03-23T02:26:55;7.40;99.90
41294;DHT22;27037;52.010;4.446;2024-03-23T02:29:21;7.40;99.90
41294;DHT22;27037;52.010;4.446;2024-03-23T02:31:46;7.40;99.90
41294;DHT22;27037;52.010;4.446;2024-03-23T02:34:12;7.30;99.90
41294;DHT22;27037;52.010;4.446;2024-03-23T02:36:37;7.30;99.90
41294;DHT22;27037;52.010;4.446;2024-03-23T02:39:03;7.30;99.90
41294;DHT22;27037;52.010;4.446;2024-03-23T02:41:29;7.30;99.90
41294;DHT22;27037;52.010;4.446;2024-03-23T02:43:54;7.30;99.90
41294;DHT22;27037;52.010;4.446;2024-03-23T02:46:20;7.30;99.90
41294;DHT22;27037;52.010;4.446;2024-03-23T02:48:48;7.20;99.90
41294;DHT22;27037;52.010;4.446;2024-03-23T02:51:14;7.30;99.90
41294;DHT22;27037;52.010;4.446;2024-03-23T02:53:39;7.20;99.90
41294;DHT22;27037;52.010;4.446;2024-03-23T02:56:05;7.20;99.90
41294;DHT22;27037;52.010;4.446;2024-03-23T02:58:31;7.20;99.90
41294;DHT22;27037;52.010;4.446;2024-03-23T03:00:56;7.20;99.90
41294;DHT22;27037;52.010;4.446;2024-03-23T03:03:22;7.20;99.90
41294;DHT22;27037;52.010;4.446;2024-03-23T03:05:47;7.10;99.90
41294;DHT22;27037;52.010;4.446;2024-03-23T03:08:13;7.10;99.90
41294;DHT22;27037;52.010;4.446;2024-03-23T03:10:38;7.10;99.90
41294;DHT22;27037;52.010;4.446;2024-03-23T03:13:04;7.10;99.90
41294;DHT22;27037;52.010;4.446;2024-03-23T03:15:30;7.10;99.90
41294;DHT22;27037;52.010;4.446;2024-03-23T03:17:55;7.10;99.90
41294;DHT22;27037;52.010;4.446;2024-03-23T03:20:21;7.10;99.90
41294;DHT22;27037;52.010;4.446;2024-03-23T03:22:48;7.10;99.90
41294;DHT22;27037;52.010;4.446;2024-03-23T03:25:14;7.10;99.90
41294;DHT22;27037;52.010;4.446;2024-03-23T03:27:40;7.10;99.90
41294;DHT22;27037;52.010;4.446;2024-03-23T03:30:05;7.20;99.90
41294;DHT22;27037;52.010;4.446;2024-03-23T03:32:34;7.20;99.90
41294;DHT22;27037;52.010;4.446;2024-03-23T03:35:00;7.20;99.90
41294;DHT22;27037;52.010;4.446;2024-03-23T03:37:25;7.20;99.90
41294;DHT22;27037;52.010;4.446;2024-03-23T03:39:51;7.20;99.90
41294;DHT22;27037;52.010;4.446;2024-03-23T03:42:17;7.20;99.90
41294;DHT22;27037;52.010;4.446;2024-03-23T03:44:42;7.20;99.90
41294;DHT22;27037;52.010;4.446;2024-03-23T03:47:08;7.20;99.90
41294;DHT22;27037;52.010;4.446;2024-03-23T03:49:33;7.20;99.90
41294;DHT22;27037;52.010;4.446;2024-03-23T03:51:59;7.20;99.90
41294;DHT22;27037;52.010;4.446;2024-03-23T03:54:26;7.20;99.90
41294;DHT22;27037;52.010;4.446;2024-03-23T03:56:52;7.10;99.90
41294;DHT22;27037;52.010;4.446;2024-03-23T03:59:17;7.10;99.90
41294;DHT22;27037;52.010;4.446;2024-03-23T04:01:43;7.10;99.90
41294;DHT22;27037;52.010;4.446;2024-03-23T04:04:08;7.10;99.90
41294;DHT22;27037;52.010;4.446;2024-03-23T04:06:34;7.10;99.90
41294;DHT22;27037;52.010;4.446;2024-03-23T04:08:59;7.10;99.90
41294;DHT22;27037;52.010;4.446;2024-03-23T04:11:25;7.10;99.90
41294;DHT22;27037;52.010;4.446;2024-03-23T04:13:50;7.00;99.90
41294;DHT22;27037;52.010;4.446;2024-03-23T04:16:29;7.00;99.90
41294;DHT22;27037;52.010;4.446;2024-03-23T04:18:55;7.00;99.90
41294;DHT22;27037;52.010;4.446;2024-03-23T04:21:21;7.00;99.90
41294;DHT22;27037;52.010;4.446;2024-03-23T04:23:47;7.00;99.90
41294;DHT22;27037;52.010;4.446;2024-03-23T04:26:13;7.00;99.90
41294;DHT22;27037;52.010;4.446;2024-03-23T04:28:39;7.00;99.90
41294;DHT22;27037;52.010;4.446;2024-03-23T04:31:05;7.00;99.90
41294;DHT22;27037;52.010;4.446;2024-03-23T04:33:31;6.90;99.90
41294;DHT22;27037;52.010;4.446;2024-03-23T04:35:56;6.90;99.90
41294;DHT22;27037;52.010;4.446;2024-03-23T04:38:22;6.90;99.90
41294;DHT22;27037;52.010;4.446;2024-03-23T04:40:59;6.90;99.90
41294;DHT22;27037;52.010;4.446;2024-03-23T04:43:27;6.90;99.90
41294;DHT22;27037;52.010;4.446;2024-03-23T04:45:53;6.90;99.90
41294;DHT22;27037;52.010;4.446;2024-03-23T04:48:23;6.90;99.90
41294;DHT22;27037;52.010;4.446;2024-03-23T04:50:49;6.90;99.90
41294;DHT22;27037;52.010;4.446;2024-03-23T04:53:15;6.90;99.90
41294;DHT22;27037;52.010;4.446;2024-03-23T04:55:42;6.90;99.90
41294;DHT22;27037;52.010;4.446;2024-03-23T04:58:08;6.90;99.90
41294;DHT22;27037;52.010;4.446;2024-03-23T05:00:33;7.00;99.90
41294;DHT22;27037;52.010;4.446;2024-03-23T05:02:59;7.00;99.90
41294;DHT22;27037;52.010;4.446;2024-03-23T05:05:25;7.00;99.90
41294;DHT22;27037;52.010;4.446;2024-03-23T05:07:50;7.10;99.90
41294;DHT22;27037;52.010;4.446;2024-03-23T05:10:16;7.10;99.90
41294;DHT22;27037;52.010;4.446;2024-03-23T05:12:42;7.10;99.90
41294;DHT22;27037;52.010;4.446;2024-03-23T05:15:07;7.20;99.90
41294;DHT22;27037;52.010;4.446;2024-03-23T05:17:33;7.20;99.90
41294;DHT22;27037;52.010;4.446;2024-03-23T05:19:59;7.20;99.90
41294;DHT22;27037;52.010;4.446;2024-03-23T05:22:25;7.30;99.90
41294;DHT22;27037;52.010;4.446;2024-03-23T05:24:50;7.30;99.90
41294;DHT22;27037;52.010;4.446;2024-03-23T05:27:16;7.30;99.90
41294;DHT22;27037;52.010;4.446;2024-03-23T05:29:41;7.30;99.90
41294;DHT22;27037;52.010;4.446;2024-03-23T05:32:07;7.30;99.90
41294;DHT22;27037;52.010;4.446;2024-03-23T05:34:33;7.30;99.90
41294;DHT22;27037;52.010;4.446;2024-03-23T05:36:59;7.30;99.90
41294;DHT22;27037;52.010;4.446;2024-03-23T05:39:24;7.30;99.90
41294;DHT22;27037;52.010;4.446;2024-03-23T05:41:50;7.30;99.90
41294;DHT22;27037;52.010;4.446;2024-03-23T05:44:16;7.20;99.90
41294;DHT22;27037;52.010;4.446;2024-03-23T05:46:42;7.20;99.90
41294;DHT22;27037;52.010;4.446;2024-03-23T05:49:08;7.20;99.90
41294;DHT22;27037;52.010;4.446;2024-03-23T05:51:33;7.20;99.90
41294;DHT22;27037;52.010;4.446;2024-03-23T05:53:59;7.20;99.90
41294;DHT22;27037;52.010;4.446;2024-03-23T05:56:24;7.20;99.90
41294;DHT22;27037;52.010;4.446;2024-03-23T05:58:53;7.20;99.90
41294;DHT22;27037;52.010;4.446;2024-03-23T06:01:18;7.20;99.90
41294;DHT22;27037;52.010;4.446;2024-03-23T06:03:44;7.10;99.90
41294;DHT22;27037;52.010;4.446;2024-03-23T06:06:10;7.10;99.90
41294;DHT22;27037;52.010;4.446;2024-03-23T06:08:38;7.10;99.90
41294;DHT22;27037;52.010;4.446;2024-03-23T06:11:04;7.10;99.90
41294;DHT22;27037;52.010;4.446;2024-03-23T06:13:32;7.10;99.90
41294;DHT22;27037;52.010;4.446;2024-03-23T06:15:58;7.10;99.90
41294;DHT22;27037;52.010;4.446;2024-03-23T06:18:24;7.10;99.90
41294;DHT22;27037;52.010;4.446;2024-03-23T06:20:49;7.10;99.90
41294;DHT22;27037;52.010;4.446;2024-03-23T06:23:15;7.10;99.90
41294;DHT22;27037;52.010;4.446;2024-03-23T06:25:42;7.20;99.90
41294;DHT22;27037;52.010;4.446;2024-03-23T06:28:08;7.20;99.90
41294;DHT22;27037;52.010;4.446;2024-03-23T06:30:34;7.20;99.90
41294;DHT22;27037;52.010;4.446;2024-03-23T06:32:59;7.20;99.90
41294;DHT22;27037;52.010;4.446;2024-03-23T06:35:25;7.20;99.90
41294;DHT22;27037;52.010;4.446;2024-03-23T06:37:50;7.20;99.90
41294;DHT22;27037;52.010;4.446;2024-03-23T06:40:16;7.20;99.90
41294;DHT22;27037;52.010;4.446;2024-03-23T06:42:42;7.30;99.90
41294;DHT22;27037;52.010;4.446;2024-03-23T06:45:07;7.30;99.90
41294;DHT22;27037;52.010;4.446;2024-03-23T06:47:33;7.30;99.90
41294;DHT22;27037;52.010;4.446;2024-03-23T06:50:02;7.30;99.90
41294;DHT22;27037;52.010;4.446;2024-03-23T06:52:28;7.30;99.90
41294;DHT22;27037;52.010;4.446;2024-03-23T06:54:54;7.40;99.90
41294;DHT22;27037;52.010;4.446;2024-03-23T06:57:19;7.40;99.90
41294;DHT22;27037;52.010;4.446;2024-03-23T06:59:45;7.40;99.90
41294;DHT22;27037;52.010;4.446;2024-03-23T07:02:10;7.40;99.90
41294;DHT22;27037;52.010;4.446;2024-03-23T07:04:37;7.50;99.90
41294;DHT22;27037;52.010;4.446;2024-03-23T07:07:04;7.50;99.90
41294;DHT22;27037;52.010;4.446;2024-03-23T07:09:30;7.50;99.90
41294;DHT22;27037;52.010;4.446;2024-03-23T07:11:56;7.50;99.90
41294;DHT22;27037;52.010;4.446;2024-03-23T07:14:23;7.60;99.90
41294;DHT22;27037;52.010;4.446;2024-03-23T07:16:49;7.60;99.90
41294;DHT22;27037;52.010;4.446;2024-03-23T07:19:16;7.60;99.90
41294;DHT22;27037;52.010;4.446;2024-03-23T07:21:42;7.70;99.90
41294;DHT22;27037;52.010;4.446;2024-03-23T07:24:08;7.70;99.90
41294;DHT22;27037;52.010;4.446;2024-03-23T07:26:33;7.80;99.90
41294;DHT22;27037;52.010;4.446;2024-03-23T07:28:59;7.80;99.90
41294;DHT22;27037;52.010;4.446;2024-03-23T07:31:24;7.80;99.90
41294;DHT22;27037;52.010;4.446;2024-03-23T07:33:51;7.80;99.90
41294;DHT22;27037;52.010;4.446;2024-03-23T07:36:16;7.80;99.90
41294;DHT22;27037;52.010;4.446;2024-03-23T07:38:42;7.80;99.90
41294;DHT22;27037;52.010;4.446;2024-03-23T07:41:11;7.70;99.90
41294;DHT22;27037;52.010;4.446;2024-03-23T07:43:38;7.70;99.90
41294;DHT22;27037;52.010;4.446;2024-03-23T07:46:04;7.70;99.90
41294;DHT22;27037;52.010;4.446;2024-03-23T07:48:30;7.70;99.90
41294;DHT22;27037;52.010;4.446;2024-03-23T07:51:03;7.70;99.90
41294;DHT22;27037;52.010;4.446;2024-03-23T07:53:30;7.70;99.90
41294;DHT22;27037;52.010;4.446;2024-03-23T07:56:05;7.70;99.90
41294;DHT22;27037;52.010;4.446;2024-03-23T07:58:31;7.70;99.90
41294;DHT22;27037;52.010;4.446;2024-03-23T08:01:07;7.80;99.90
41294;DHT22;27037;52.010;4.446;2024-03-23T08:03:36;7.80;99.90
41294;DHT22;27037;52.010;4.446;2024-03-23T08:06:18;7.80;99.90
41294;DHT22;27037;52.010;4.446;2024-03-23T08:08:48;8.00;99.90
41294;DHT22;27037;52.010;4.446;2024-03-23T08:11:14;8.00;99.90
41294;DHT22;27037;52.010;4.446;2024-03-23T08:13:41;8.10;99.90
41294;DHT22;27037;52.010;4.446;2024-03-23T08:16:07;8.10;99.90
41294;DHT22;27037;52.010;4.446;2024-03-23T08:18:36;8.20;99.90
41294;DHT22;27037;52.010;4.446;2024-03-23T08:21:04;8.30;99.90
41294;DHT22;27037;52.010;4.446;2024-03-23T08:23:36;8.40;99.90
41294;DHT22;27037;52.010;4.446;2024-03-23T08:26:08;8.40;99.90
41294;DHT22;27037;52.010;4.446;2024-03-23T08:28:35;8.40;99.90
41294;DHT22;27037;52.010;4.446;2024-03-23T08:31:02;8.50;99.90
41294;DHT22;27037;52.010;4.446;2024-03-23T08:33:28;8.60;99.90
41294;DHT22;27037;52.010;4.446;2024-03-23T08:36:00;8.60;99.90
41294;DHT22;27037;52.010;4.446;2024-03-23T08:38:27;8.60;99.90
41294;DHT22;27037;52.010;4.446;2024-03-23T08:41:04;8.60;99.90
41294;DHT22;27037;52.010;4.446;2024-03-23T08:43:30;8.60;99.90
41294;DHT22;27037;52.010;4.446;2024-03-23T08:46:10;8.60;99.90
41294;DHT22;27037;52.010;4.446;2024-03-23T08:48:46;8.60;99.90
41294;DHT22;27037;52.010;4.446;2024-03-23T08:51:15;8.50;99.90
41294;DHT22;27037;52.010;4.446;2024-03-23T08:53:41;8.40;99.90
41294;DHT22;27037;52.010;4.446;2024-03-23T08:56:07;8.40;99.90
41294;DHT22;27037;52.010;4.446;2024-03-23T08:58:34;8.40;99.90
41294;DHT22;27037;52.010;4.446;2024-03-23T09:03:32;8.50;99.90
41294;DHT22;27037;52.010;4.446;2024-03-23T09:05:58;8.50;99.90
41294;DHT22;27037;52.010;4.446;2024-03-23T09:08:25;8.70;99.90
41294;DHT22;27037;52.010;4.446;2024-03-23T09:10:51;8.90;99.90
41294;DHT22;27037;52.010;4.446;2024-03-23T09:13:17;8.90;99.90
41294;DHT22;27037;52.010;4.446;2024-03-23T09:15:48;9.00;99.90
41294;DHT22;27037;52.010;4.446;2024-03-23T09:18:14;9.10;99.90
41294;DHT22;27037;52.010;4.446;2024-03-23T09:20:39;9.30;99.90
41294;DHT22;27037;52.010;4.446;2024-03-23T09:23:05;9.50;99.90
41294;DHT22;27037;52.010;4.446;2024-03-23T09:25:31;9.50;99.90
41294;DHT22;27037;52.010;4.446;2024-03-23T09:27:58;9.40;99.90
41294;DHT22;27037;52.010;4.446;2024-03-23T09:30:23;9.30;99.90
41294;DHT22;27037;52.010;4.446;2024-03-23T09:32:49;9.20;99.90
41294;DHT22;27037;52.010;4.446;2024-03-23T09:35:15;9.20;99.90
41294;DHT22;27037;52.010;4.446;2024-03-23T09:37:44;9.10;99.90
41294;DHT22;27037;52.010;4.446;2024-03-23T09:40:11;9.20;99.90
41294;DHT22;27037;52.010;4.446;2024-03-23T09:42:37;9.30;99.90
41294;DHT22;27037;52.010;4.446;2024-03-23T09:45:06;9.40;99.90
41294;DHT22;27037;52.010;4.446;2024-03-23T09:47:36;9.50;99.90
41294;DHT22;27037;52.010;4.446;2024-03-23T09:50:03;9.60;99.90
41294;DHT22;27037;52.010;4.446;2024-03-23T09:52:30;9.60;99.90
41294;DHT22;27037;52.010;4.446;2024-03-23T09:54:56;9.50;99.90
41294;DHT22;27037;52.010;4.446;2024-03-23T09:57:22;9.60;99.90
41294;DHT22;27037;52.010;4.446;2024-03-23T09:59:48;9.50;99.90
41294;DHT22;27037;52.010;4.446;2024-03-23T10:02:16;9.40;99.90
41294;DHT22;27037;52.010;4.446;2024-03-23T10:04:42;9.50;99.90
41294;DHT22;27037;52.010;4.446;2024-03-23T10:07:15;9.60;99.90
41294;DHT22;27037;52.010;4.446;2024-03-23T10:09:42;9.70;99.90
41294;DHT22;27037;52.010;4.446;2024-03-23T10:12:18;9.90;99.90
41294;DHT22;27037;52.010;4.446;2024-03-23T10:14:44;9.90;99.90
41294;DHT22;27037;52.010;4.446;2024-03-23T10:17:21;10.00;99.90
41294;DHT22;27037;52.010;4.446;2024-03-23T10:19:52;10.10;99.90
41294;DHT22;27037;52.010;4.446;2024-03-23T10:22:24;10.40;99.90
41294;DHT22;27037;52.010;4.446;2024-03-23T10:24:50;10.60;99.90
41294;DHT22;27037;52.010;4.446;2024-03-23T10:27:20;10.60;99.90
41294;DHT22;27037;52.010;4.446;2024-03-23T10:29:49;10.40;99.90
41294;DHT22;27037;52.010;4.446;2024-03-23T10:32:16;10.30;99.90
41294;DHT22;27037;52.010;4.446;2024-03-23T10:34:42;10.40;99.90
41294;DHT22;27037;52.010;4.446;2024-03-23T10:37:09;10.40;99.90
41294;DHT22;27037;52.010;4.446;2024-03-23T10:39:39;10.20;99.90
41294;DHT22;27037;52.010;4.446;2024-03-23T10:42:06;10.10;99.90
41294;DHT22;27037;52.010;4.446;2024-03-23T10:44:33;10.10;99.90
41294;DHT22;27037;52.010;4.446;2024-03-23T10:47:02;10.10;99.90
41294;DHT22;27037;52.010;4.446;2024-03-23T10:49:33;10.10;99.90
41294;DHT22;27037;52.010;4.446;2024-03-23T10:52:00;10.00;99.90
41294;DHT22;27037;52.010;4.446;2024-03-23T10:54:26;10.00;99.90
41294;DHT22;27037;52.010;4.446;2024-03-23T10:57:13;10.00;99.90
41294;DHT22;27037;52.010;4.446;2024-03-23T10:59:40;9.90;99.90
41294;DHT22;27037;52.010;4.446;2024-03-23T11:02:06;9.90;99.90
41294;DHT22;27037;52.010;4.446;2024-03-23T11:04:38;9.90;99.90
41294;DHT22;27037;52.010;4.446;2024-03-23T11:09:49;10.10;99.90
41294;DHT22;27037;52.010;4.446;2024-03-23T11:15:11;10.20;99.90
41294;DHT22;27037;52.010;4.446;2024-03-23T11:17:38;10.30;99.90
41294;DHT22;27037;52.010;4.446;2024-03-23T11:20:05;10.10;99.90
41294;DHT22;27037;52.010;4.446;2024-03-23T11:22:49;10.00;99.90
41294;DHT22;27037;52.010;4.446;2024-03-23T11:25:24;9.90;99.90
41294;DHT22;27037;52.010;4.446;2024-03-23T11:27:52;9.80;99.90
41294;DHT22;27037;52.010;4.446;2024-03-23T11:30:22;9.80;99.90
41294;DHT22;27037;52.010;4.446;2024-03-23T11:32:49;9.80;99.90
41294;DHT22;27037;52.010;4.446;2024-03-23T11:35:41;9.80;99.90
41294;DHT22;27037;52.010;4.446;2024-03-23T11:38:11;9.80;99.90
41294;DHT22;27037;52.010;4.446;2024-03-23T11:40:41;9.70;99.90
41294;DHT22;27037;52.010;4.446;2024-03-23T11:43:12;9.70;99.90
41294;DHT22;27037;52.010;4.446;2024-03-23T11:45:40;9.80;99.90
41294;DHT22;27037;52.010;4.446;2024-03-23T11:50:36;9.70;99.90
41294;DHT22;27037;52.010;4.446;2024-03-23T11:58:05;9.90;99.90
41294;DHT22;27037;52.010;4.446;2024-03-23T12:00:31;9.90;99.90
41294;DHT22;27037;52.010;4.446;2024-03-23T12:03:01;9.80;99.90
41294;DHT22;27037;52.010;4.446;2024-03-23T12:05:27;9.80;99.90
41294;DHT22;27037;52.010;4.446;2024-03-23T12:07:52;9.80;99.90
41294;DHT22;27037;52.010;4.446;2024-03-23T12:10:19;9.90;99.90
41294;DHT22;27037;52.010;4.446;2024-03-23T12:12:45;10.10;99.90
41294;DHT22;27037;52.010;4.446;2024-03-23T12:15:10;10.30;99.90
41294;DHT22;27037;52.010;4.446;2024-03-23T12:17:38;10.50;99.90
41294;DHT22;27037;52.010;4.446;2024-03-23T12:20:04;10.50;99.90
41294;DHT22;27037;52.010;4.446;2024-03-23T12:22:30;10.40;99.90
41294;DHT22;27037;52.010;4.446;2024-03-23T12:24:56;10.20;99.90
41294;DHT22;27037;52.010;4.446;2024-03-23T12:27:22;10.00;99.90
41294;DHT22;27037;52.010;4.446;2024-03-23T12:29:47;9.80;99.90
41294;DHT22;27037;52.010;4.446;2024-03-23T12:32:14;9.60;99.90
41294;DHT22;27037;52.010;4.446;2024-03-23T12:34:40;9.40;99.90
41294;DHT22;27037;52.010;4.446;2024-03-23T12:37:06;9.30;99.90
41294;DHT22;27037;52.010;4.446;2024-03-23T12:39:32;9.20;99.90
41294;DHT22;27037;52.010;4.446;2024-03-23T12:41:58;9.20;99.90
41294;DHT22;27037;52.010;4.446;2024-03-23T12:44:23;9.30;99.90
41294;DHT22;27037;52.010;4.446;2024-03-23T12:46:49;9.30;99.90
41294;DHT22;27037;52.010;4.446;2024-03-23T12:49:15;9.40;99.90
41294;DHT22;27037;52.010;4.446;2024-03-23T12:51:48;9.50;99.90
41294;DHT22;27037;52.010;4.446;2024-03-23T12:54:13;9.50;99.90
41294;DHT22;27037;52.010;4.446;2024-03-23T12:56:39;9.60;99.90
41294;DHT22;27037;52.010;4.446;2024-03-23T12:59:05;9.60;99.90
41294;DHT22;27037;52.010;4.446;2024-03-23T13:01:30;9.50;99.90
41294;DHT22;27037;52.010;4.446;2024-03-23T13:03:56;9.50;99.90
41294;DHT22;27037;52.010;4.446;2024-03-23T13:06:21;9.60;99.90
41294;DHT22;27037;52.010;4.446;2024-03-23T13:08:47;9.60;99.90
41294;DHT22;27037;52.010;4.446;2024-03-23T13:11:15;9.70;99.90
41294;DHT22;27037;52.010;4.446;2024-03-23T13:13:41;9.90;99.90
41294;DHT22;27037;52.010;4.446;2024-03-23T13:16:07;10.10;99.90
41294;DHT22;27037;52.010;4.446;2024-03-23T13:18:33;10.10;99.90
41294;DHT22;27037;52.010;4.446;2024-03-23T13:20:59;10.10;99.90
41294;DHT22;27037;52.010;4.446;2024-03-23T13:23:25;10.00;99.90
41294;DHT22;27037;52.010;4.446;2024-03-23T13:25:55;9.90;99.90
41294;DHT22;27037;52.010;4.446;2024-03-23T13:28:21;9.80;99.90
41294;DHT22;27037;52.010;4.446;2024-03-23T13:30:53;9.70;99.90
41294;DHT22;27037;52.010;4.446;2024-03-23T13:33:19;9.80;99.90
41294;DHT22;27037;52.010;4.446;2024-03-23T13:35:54;9.80;99.90
41294;DHT22;27037;52.010;4.446;2024-03-23T13:38:23;9.80;99.90
41294;DHT22;27037;52.010;4.446;2024-03-23T13:40:57;9.80;99.90
41294;DHT22;27037;52.010;4.446;2024-03-23T13:43:24;9.80;99.90
41294;DHT22;27037;52.010;4.446;2024-03-23T13:45:54;9.70;99.90
41294;DHT22;27037;52.010;4.446;2024-03-23T13:48:21;9.60;99.90
41294;DHT22;27037;52.010;4.446;2024-03-23T13:50:47;9.40;99.90
41294;DHT22;27037;52.010;4.446;2024-03-23T13:53:14;9.30;99.90
41294;DHT22;27037;52.010;4.446;2024-03-23T13:55:48;9.20;99.90
41294;DHT22;27037;52.010;4.446;2024-03-23T13:58:18;9.10;99.90
41294;DHT22;27037;52.010;4.446;2024-03-23T14:00:43;9.10;99.90
41294;DHT22;27037;52.010;4.446;2024-03-23T14:03:10;9.20;99.90
41294;DHT22;27037;52.010;4.446;2024-03-23T14:05:36;9.30;99.90
41294;DHT22;27037;52.010;4.446;2024-03-23T14:08:04;9.30;99.90
41294;DHT22;27037;52.010;4.446;2024-03-23T14:10:30;9.30;99.90
41294;DHT22;27037;52.010;4.446;2024-03-23T14:12:56;9.30;99.90
41294;DHT22;27037;52.010;4.446;2024-03-23T14:15:21;9.20;99.90
41294;DHT22;27037;52.010;4.446;2024-03-23T14:17:47;9.00;99.90
41294;DHT22;27037;52.010;4.446;2024-03-23T14:20:12;9.00;99.90
41294;DHT22;27037;52.010;4.446;2024-03-23T14:22:38;8.90;99.90
41294;DHT22;27037;52.010;4.446;2024-03-23T14:25:07;8.90;99.90
41294;DHT22;27037;52.010;4.446;2024-03-23T14:27:32;9.00;99.90
41294;DHT22;27037;52.010;4.446;2024-03-23T14:29:58;9.20;99.90
41294;DHT22;27037;52.010;4.446;2024-03-23T14:32:23;9.20;99.90
41294;DHT22;27037;52.010;4.446;2024-03-23T14:34:49;9.20;99.90
41294;DHT22;27037;52.010;4.446;2024-03-23T14:37:14;9.30;99.90
41294;DHT22;27037;52.010;4.446;2024-03-23T14:39:41;9.30;99.90
41294;DHT22;27037;52.010;4.446;2024-03-23T14:42:07;9.40;99.90
41294;DHT22;27037;52.010;4.446;2024-03-23T14:44:35;9.40;99.90
41294;DHT22;27037;52.010;4.446;2024-03-23T14:47:01;9.40;99.90
41294;DHT22;27037;52.010;4.446;2024-03-23T14:49:27;9.50;99.90
41294;DHT22;27037;52.010;4.446;2024-03-23T14:51:52;9.60;99.90
41294;DHT22;27037;52.010;4.446;2024-03-23T14:54:18;9.50;99.90
41294;DHT22;27037;52.010;4.446;2024-03-23T14:56:43;9.60;99.90
41294;DHT22;27037;52.010;4.446;2024-03-23T14:59:09;9.50;99.90
41294;DHT22;27037;52.010;4.446;2024-03-23T15:01:34;9.60;99.90
41294;DHT22;27037;52.010;4.446;2024-03-23T15:04:00;9.50;99.90
41294;DHT22;27037;52.010;4.446;2024-03-23T15:06:26;9.50;99.90
41294;DHT22;27037;52.010;4.446;2024-03-23T15:08:51;9.60;99.90
41294;DHT22;27037;52.010;4.446;2024-03-23T15:11:17;9.70;99.90
41294;DHT22;27037;52.010;4.446;2024-03-23T15:13:45;9.90;99.90
41294;DHT22;27037;52.010;4.446;2024-03-23T15:16:16;10.00;99.90
41294;DHT22;27037;52.010;4.446;2024-03-23T15:18:41;10.10;99.90
41294;DHT22;27037;52.010;4.446;2024-03-23T15:21:07;10.00;99.90
41294;DHT22;27037;52.010;4.446;2024-03-23T15:23:36;9.90;99.90
41294;DHT22;27037;52.010;4.446;2024-03-23T15:26:03;9.90;99.90
41294;DHT22;27037;52.010;4.446;2024-03-23T15:28:29;9.80;99.90
41294;DHT22;27037;52.010;4.446;2024-03-23T15:31:18;9.70;99.90
41294;DHT22;27037;52.010;4.446;2024-03-23T15:33:44;9.60;99.90
41294;DHT22;27037;52.010;4.446;2024-03-23T15:36:09;9.50;99.90
41294;DHT22;27037;52.010;4.446;2024-03-23T15:38:35;9.50;99.90
41294;DHT22;27037;52.010;4.446;2024-03-23T15:41:01;9.60;99.90
41294;DHT22;27037;52.010;4.446;2024-03-23T15:43:27;9.60;99.90
41294;DHT22;27037;52.010;4.446;2024-03-23T15:48:21;9.70;99.90
41294;DHT22;27037;52.010;4.446;2024-03-23T15:50:53;9.80;99.90
41294;DHT22;27037;52.010;4.446;2024-03-23T15:53:20;9.80;99.90
41294;DHT22;27037;52.010;4.446;2024-03-23T15:55:52;9.90;99.90
41294;DHT22;27037;52.010;4.446;2024-03-23T15:58:18;10.00;99.90
41294;DHT22;27037;52.010;4.446;2024-03-23T16:00:43;10.00;99.90
41294;DHT22;27037;52.010;4.446;2024-03-23T16:03:09;10.10;99.90
41294;DHT22;27037;52.010;4.446;2024-03-23T16:05:34;10.00;99.90
41294;DHT22;27037;52.010;4.446;2024-03-23T16:08:00;10.00;99.90
41294;DHT22;27037;52.010;4.446;2024-03-23T16:10:25;10.00;99.90
41294;DHT22;27037;52.010;4.446;2024-03-23T16:12:51;10.00;99.90
41294;DHT22;27037;52.010;4.446;2024-03-23T16:15:16;10.00;99.90
41294;DHT22;27037;52.010;4.446;2024-03-23T16:17:42;9.90;99.90
41294;DHT22;27037;52.010;4.446;2024-03-23T16:20:08;9.90;99.90
41294;DHT22;27037;52.010;4.446;2024-03-23T16:22:34;9.80;99.90
41294;DHT22;27037;52.010;4.446;2024-03-23T16:25:00;9.70;99.90
41294;DHT22;27037;52.010;4.446;2024-03-23T16:27:25;9.70;99.90
41294;DHT22;27037;52.010;4.446;2024-03-23T16:29:51;9.70;99.90
41294;DHT22;27037;52.010;4.446;2024-03-23T16:32:16;9.70;99.90
41294;DHT22;27037;52.010;4.446;2024-03-23T16:34:42;9.70;99.90
41294;DHT22;27037;52.010;4.446;2024-03-23T16:37:08;9.70;99.90
41294;DHT22;27037;52.010;4.446;2024-03-23T16:39:36;9.60;99.90
41294;DHT22;27037;52.010;4.446;2024-03-23T16:42:02;9.50;99.90
41294;DHT22;27037;52.010;4.446;2024-03-23T16:44:29;9.40;99.90
41294;DHT22;27037;52.010;4.446;2024-03-23T16:46:54;9.30;99.90
41294;DHT22;27037;52.010;4.446;2024-03-23T16:49:20;9.20;99.90
41294;DHT22;27037;52.010;4.446;2024-03-23T16:51:45;9.10;99.90
41294;DHT22;27037;52.010;4.446;2024-03-23T16:54:11;9.00;99.90